sensor_id;sensor_type;location;lat;lon;timestamp;P1;durP1;ratioP1;P2;durP2;ratioP2
72864;SDS011;61000;48.120;11.548;2023-02-28T00:00:37;4.73;;;4.17;;
72864;SDS011;61000;48.120;11.548;2023-02-28T00:03:04;9.63;;;4.53;;
72864;SDS011;61000;48.120;11.548;2023-02-28T00:05:33;8.17;;;4.77;;
72864;SDS011;61000;48.120;11.548;2023-02-28T00:08:00;6.97;;;4.60;;
72864;SDS011;61000;48.120;11.548;2023-02-28T00:10:28;9.23;;;4.60;;
72864;SDS011;61000;48.120;11.548;2023-02-28T00:12:59;5.27;;;4.77;;
72864;SDS011;61000;48.120;11.548;2023-02-28T00:15:27;8.27;;;4.60;;
72864;SDS011;61000;48.120;11.548;2023-02-28T00:17:54;9.17;;;5.20;;
72864;SDS011;61000;48.120;11.548;2023-02-28T00:20:21;7.43;;;4.63;;
72864;SDS011;61000;48.120;11.548;2023-02-28T00:22:50;5.13;;;4.63;;
72864;SDS011;61000;48.120;11.548;2023-02-28T00:25:19;8.43;;;4.80;;
72864;SDS011;61000;48.120;11.548;2023-02-28T00:27:47;5.83;;;4.60;;
72864;SDS011;61000;48.120;11.548;2023-02-28T00:30:15;4.43;;;4.00;;
72864;SDS011;61000;48.120;11.548;2023-02-28T00:32:42;6.87;;;4.93;;
72864;SDS011;61000;48.120;11.548;2023-02-28T00:35:09;5.70;;;4.30;;
72864;SDS011;61000;48.120;11.548;2023-02-28T00:37:37;7.23;;;4.20;;
72864;SDS011;61000;48.120;11.548;2023-02-28T00:40:06;7.90;;;4.80;;
72864;SDS011;61000;48.120;11.548;2023-02-28T00:42:35;6.43;;;5.23;;
72864;SDS011;61000;48.120;11.548;2023-02-28T00:45:02;6.93;;;4.47;;
72864;SDS011;61000;48.120;11.548;2023-02-28T00:47:30;9.57;;;4.60;;
72864;SDS011;61000;48.120;11.548;2023-02-28T00:49:57;4.07;;;3.63;;
72864;SDS011;61000;48.120;11.548;2023-02-28T00:52:23;8.20;;;4.90;;
72864;SDS011;61000;48.120;11.548;2023-02-28T00:54:50;6.10;;;5.20;;
72864;SDS011;61000;48.120;11.548;2023-02-28T00:57:18;6.57;;;5.33;;
72864;SDS011;61000;48.120;11.548;2023-02-28T00:59:45;7.03;;;5.13;;
72864;SDS011;61000;48.120;11.548;2023-02-28T01:02:12;7.07;;;4.63;;
72864;SDS011;61000;48.120;11.548;2023-02-28T01:04:39;5.57;;;4.53;;
72864;SDS011;61000;48.120;11.548;2023-02-28T01:07:06;5.90;;;4.87;;
72864;SDS011;61000;48.120;11.548;2023-02-28T01:09:33;9.03;;;4.80;;
72864;SDS011;61000;48.120;11.548;2023-02-28T01:12:00;8.30;;;5.17;;
72864;SDS011;61000;48.120;11.548;2023-02-28T01:14:28;6.50;;;4.67;;
72864;SDS011;61000;48.120;11.548;2023-02-28T01:16:55;5.23;;;4.73;;
72864;SDS011;61000;48.120;11.548;2023-02-28T01:19:24;6.57;;;4.77;;
72864;SDS011;61000;48.120;11.548;2023-02-28T01:21:50;7.70;;;5.10;;
72864;SDS011;61000;48.120;11.548;2023-02-28T01:24:17;7.40;;;5.37;;
72864;SDS011;61000;48.120;11.548;2023-02-28T01:26:44;6.20;;;5.23;;
72864;SDS011;61000;48.120;11.548;2023-02-28T01:29:11;7.67;;;5.30;;
72864;SDS011;61000;48.120;11.548;2023-02-28T01:31:39;7.33;;;4.90;;
72864;SDS011;61000;48.120;11.548;2023-02-28T01:34:07;7.20;;;5.20;;
72864;SDS011;61000;48.120;11.548;2023-02-28T01:36:34;6.93;;;4.90;;
72864;SDS011;61000;48.120;11.548;2023-02-28T01:39:01;7.07;;;5.40;;
72864;SDS011;61000;48.120;11.548;2023-02-28T01:41:29;6.30;;;5.00;;
72864;SDS011;61000;48.120;11.548;2023-02-28T01:44:00;8.60;;;5.17;;
72864;SDS011;61000;48.120;11.548;2023-02-28T01:46:29;6.07;;;5.23;;
72864;SDS011;61000;48.120;11.548;2023-02-28T01:49:00;7.47;;;5.10;;
72864;SDS011;61000;48.120;11.548;2023-02-28T01:51:33;7.73;;;4.83;;
72864;SDS011;61000;48.120;11.548;2023-02-28T01:54:06;6.60;;;5.20;;
72864;SDS011;61000;48.120;11.548;2023-02-28T01:56:39;7.47;;;5.00;;
72864;SDS011;61000;48.120;11.548;2023-02-28T01:59:12;9.17;;;5.53;;
72864;SDS011;61000;48.120;11.548;2023-02-28T02:01:43;7.10;;;4.83;;
72864;SDS011;61000;48.120;11.548;2023-02-28T02:04:12;5.97;;;5.10;;
72864;SDS011;61000;48.120;11.548;2023-02-28T02:06:42;5.37;;;4.57;;
72864;SDS011;61000;48.120;11.548;2023-02-28T02:09:11;6.30;;;4.83;;
72864;SDS011;61000;48.120;11.548;2023-02-28T02:11:39;8.53;;;5.37;;
72864;SDS011;61000;48.120;11.548;2023-02-28T02:14:21;8.37;;;5.00;;
72864;SDS011;61000;48.120;11.548;2023-02-28T02:17:08;6.00;;;5.03;;
72864;SDS011;61000;48.120;11.548;2023-02-28T02:19:53;7.57;;;5.10;;
72864;SDS011;61000;48.120;11.548;2023-02-28T02:25:34;7.13;;;5.40;;
72864;SDS011;61000;48.120;11.548;2023-02-28T02:28:22;6.30;;;5.20;;
72864;SDS011;61000;48.120;11.548;2023-02-28T02:31:17;5.97;;;5.03;;
72864;SDS011;61000;48.120;11.548;2023-02-28T02:34:25;8.67;;;4.80;;
72864;SDS011;61000;48.120;11.548;2023-02-28T02:37:00;8.27;;;5.47;;
72864;SDS011;61000;48.120;11.548;2023-02-28T02:39:36;9.67;;;5.37;;
72864;SDS011;61000;48.120;11.548;2023-02-28T02:42:11;7.83;;;4.87;;
72864;SDS011;61000;48.120;11.548;2023-02-28T02:44:42;6.27;;;5.17;;
72864;SDS011;61000;48.120;11.548;2023-02-28T02:47:16;5.63;;;5.07;;
72864;SDS011;61000;48.120;11.548;2023-02-28T02:49:49;6.80;;;5.23;;
72864;SDS011;61000;48.120;11.548;2023-02-28T02:52:18;8.03;;;4.90;;
72864;SDS011;61000;48.120;11.548;2023-02-28T02:54:51;6.13;;;5.53;;
72864;SDS011;61000;48.120;11.548;2023-02-28T02:57:21;6.03;;;5.30;;
72864;SDS011;61000;48.120;11.548;2023-02-28T02:59:53;7.10;;;5.17;;
72864;SDS011;61000;48.120;11.548;2023-02-28T03:02:22;9.00;;;5.70;;
72864;SDS011;61000;48.120;11.548;2023-02-28T03:04:53;8.90;;;5.13;;
72864;SDS011;61000;48.120;11.548;2023-02-28T03:07:26;10.37;;;5.50;;
72864;SDS011;61000;48.120;11.548;2023-02-28T03:09:53;7.97;;;5.53;;
72864;SDS011;61000;48.120;11.548;2023-02-28T03:12:22;8.70;;;5.73;;
72864;SDS011;61000;48.120;11.548;2023-02-28T03:14:56;7.23;;;4.97;;
72864;SDS011;61000;48.120;11.548;2023-02-28T03:17:35;7.00;;;5.80;;
72864;SDS011;61000;48.120;11.548;2023-02-28T03:20:18;8.73;;;5.00;;
72864;SDS011;61000;48.120;11.548;2023-02-28T03:23:01;8.50;;;5.80;;
72864;SDS011;61000;48.120;11.548;2023-02-28T03:25:37;8.00;;;5.47;;
72864;SDS011;61000;48.120;11.548;2023-02-28T03:28:14;11.10;;;6.10;;
72864;SDS011;61000;48.120;11.548;2023-02-28T03:30:45;6.83;;;5.40;;
72864;SDS011;61000;48.120;11.548;2023-02-28T03:33:19;9.23;;;5.73;;
72864;SDS011;61000;48.120;11.548;2023-02-28T03:35:51;9.40;;;6.23;;
72864;SDS011;61000;48.120;11.548;2023-02-28T03:38:22;11.70;;;6.20;;
72864;SDS011;61000;48.120;11.548;2023-02-28T03:40:55;7.77;;;5.53;;
72864;SDS011;61000;48.120;11.548;2023-02-28T03:43:29;9.43;;;6.30;;
72864;SDS011;61000;48.120;11.548;2023-02-28T03:45:59;8.37;;;5.73;;
72864;SDS011;61000;48.120;11.548;2023-02-28T03:48:33;9.33;;;6.13;;
72864;SDS011;61000;48.120;11.548;2023-02-28T03:51:06;10.57;;;6.67;;
72864;SDS011;61000;48.120;11.548;2023-02-28T03:53:37;9.97;;;6.30;;
72864;SDS011;61000;48.120;11.548;2023-02-28T03:56:09;13.67;;;7.00;;
72864;SDS011;61000;48.120;11.548;2023-02-28T03:58:41;9.37;;;6.47;;
72864;SDS011;61000;48.120;11.548;2023-02-28T04:01:16;12.47;;;6.90;;
72864;SDS011;61000;48.120;11.548;2023-02-28T04:03:47;9.90;;;6.90;;
72864;SDS011;61000;48.120;11.548;2023-02-28T04:06:17;12.13;;;6.77;;
72864;SDS011;61000;48.120;11.548;2023-02-28T04:08:45;9.23;;;6.50;;
72864;SDS011;61000;48.120;11.548;2023-02-28T04:11:16;11.40;;;6.93;;
72864;SDS011;61000;48.120;11.548;2023-02-28T04:13:47;11.33;;;6.60;;
72864;SDS011;61000;48.120;11.548;2023-02-28T04:16:14;8.77;;;6.40;;
72864;SDS011;61000;48.120;11.548;2023-02-28T04:18:41;7.93;;;6.03;;
72864;SDS011;61000;48.120;11.548;2023-02-28T04:21:09;13.73;;;6.60;;
72864;SDS011;61000;48.120;11.548;2023-02-28T04:23:38;9.67;;;6.43;;
72864;SDS011;61000;48.120;11.548;2023-02-28T04:26:05;12.07;;;7.10;;
72864;SDS011;61000;48.120;11.548;2023-02-28T04:28:32;13.13;;;7.20;;
72864;SDS011;61000;48.120;11.548;2023-02-28T04:31:00;9.87;;;7.27;;
72864;SDS011;61000;48.120;11.548;2023-02-28T04:33:29;14.37;;;7.50;;
72864;SDS011;61000;48.120;11.548;2023-02-28T04:36:00;10.20;;;7.67;;
72864;SDS011;61000;48.120;11.548;2023-02-28T04:38:29;13.13;;;7.60;;
72864;SDS011;61000;48.120;11.548;2023-02-28T04:40:58;13.30;;;8.00;;
72864;SDS011;61000;48.120;11.548;2023-02-28T04:43:26;9.43;;;6.93;;
72864;SDS011;61000;48.120;11.548;2023-02-28T04:45:53;13.57;;;7.70;;
72864;SDS011;61000;48.120;11.548;2023-02-28T04:48:22;12.40;;;7.47;;
72864;SDS011;61000;48.120;11.548;2023-02-28T04:50:49;12.80;;;7.83;;
72864;SDS011;61000;48.120;11.548;2023-02-28T04:53:16;14.33;;;8.73;;
72864;SDS011;61000;48.120;11.548;2023-02-28T04:55:44;11.30;;;7.23;;
72864;SDS011;61000;48.120;11.548;2023-02-28T04:58:12;13.93;;;8.63;;
72864;SDS011;61000;48.120;11.548;2023-02-28T05:00:39;13.33;;;8.03;;
72864;SDS011;61000;48.120;11.548;2023-02-28T05:03:06;16.67;;;9.23;;
72864;SDS011;61000;48.120;11.548;2023-02-28T05:05:33;12.50;;;8.07;;
72864;SDS011;61000;48.120;11.548;2023-02-28T05:08:00;15.37;;;8.60;;
72864;SDS011;61000;48.120;11.548;2023-02-28T05:10:27;15.73;;;8.70;;
72864;SDS011;61000;48.120;11.548;2023-02-28T05:12:54;12.90;;;8.77;;
72864;SDS011;61000;48.120;11.548;2023-02-28T05:15:23;14.07;;;8.40;;
72864;SDS011;61000;48.120;11.548;2023-02-28T05:17:50;20.53;;;9.07;;
72864;SDS011;61000;48.120;11.548;2023-02-28T05:20:17;14.53;;;8.43;;
72864;SDS011;61000;48.120;11.548;2023-02-28T05:22:46;13.27;;;8.27;;
72864;SDS011;61000;48.120;11.548;2023-02-28T05:25:13;15.57;;;9.20;;
72864;SDS011;61000;48.120;11.548;2023-02-28T05:27:44;16.67;;;9.60;;
72864;SDS011;61000;48.120;11.548;2023-02-28T05:30:11;14.90;;;8.63;;
72864;SDS011;61000;48.120;11.548;2023-02-28T05:32:40;15.30;;;9.23;;
72864;SDS011;61000;48.120;11.548;2023-02-28T05:35:09;17.03;;;9.50;;
72864;SDS011;61000;48.120;11.548;2023-02-28T05:37:36;18.10;;;10.03;;
72864;SDS011;61000;48.120;11.548;2023-02-28T05:40:04;14.33;;;9.20;;
72864;SDS011;61000;48.120;11.548;2023-02-28T05:42:35;19.20;;;10.23;;
72864;SDS011;61000;48.120;11.548;2023-02-28T05:45:02;23.90;;;10.47;;
72864;SDS011;61000;48.120;11.548;2023-02-28T05:47:29;19.37;;;10.37;;
72864;SDS011;61000;48.120;11.548;2023-02-28T05:49:58;16.17;;;10.43;;
72864;SDS011;61000;48.120;11.548;2023-02-28T05:52:25;18.80;;;9.57;;
72864;SDS011;61000;48.120;11.548;2023-02-28T05:54:52;16.97;;;10.10;;
72864;SDS011;61000;48.120;11.548;2023-02-28T05:57:18;17.97;;;10.80;;
72864;SDS011;61000;48.120;11.548;2023-02-28T05:59:45;18.70;;;10.47;;
72864;SDS011;61000;48.120;11.548;2023-02-28T06:02:13;17.67;;;10.53;;
72864;SDS011;61000;48.120;11.548;2023-02-28T06:04:41;19.93;;;11.10;;
72864;SDS011;61000;48.120;11.548;2023-02-28T06:07:10;19.43;;;11.80;;
72864;SDS011;61000;48.120;11.548;2023-02-28T06:09:36;20.07;;;10.77;;
72864;SDS011;61000;48.120;11.548;2023-02-28T06:12:04;21.27;;;11.63;;
72864;SDS011;61000;48.120;11.548;2023-02-28T06:14:34;19.70;;;11.30;;
72864;SDS011;61000;48.120;11.548;2023-02-28T06:17:02;19.53;;;11.67;;
72864;SDS011;61000;48.120;11.548;2023-02-28T06:19:31;21.73;;;12.27;;
72864;SDS011;61000;48.120;11.548;2023-02-28T06:21:58;19.47;;;11.67;;
72864;SDS011;61000;48.120;11.548;2023-02-28T06:24:27;17.83;;;11.03;;
72864;SDS011;61000;48.120;11.548;2023-02-28T06:26:55;21.17;;;12.13;;
72864;SDS011;61000;48.120;11.548;2023-02-28T06:29:23;19.90;;;12.20;;
72864;SDS011;61000;48.120;11.548;2023-02-28T06:31:50;26.70;;;12.70;;
72864;SDS011;61000;48.120;11.548;2023-02-28T06:34:17;20.10;;;12.37;;
72864;SDS011;61000;48.120;11.548;2023-02-28T06:36:44;23.30;;;14.07;;
72864;SDS011;61000;48.120;11.548;2023-02-28T06:39:11;22.93;;;11.50;;
72864;SDS011;61000;48.120;11.548;2023-02-28T06:41:39;22.50;;;13.50;;
72864;SDS011;61000;48.120;11.548;2023-02-28T06:44:10;21.30;;;12.47;;
72864;SDS011;61000;48.120;11.548;2023-02-28T06:46:38;24.80;;;12.97;;
72864;SDS011;61000;48.120;11.548;2023-02-28T06:49:05;22.97;;;12.80;;
72864;SDS011;61000;48.120;11.548;2023-02-28T06:51:35;21.33;;;12.30;;
72864;SDS011;61000;48.120;11.548;2023-02-28T06:54:03;23.67;;;11.53;;
72864;SDS011;61000;48.120;11.548;2023-02-28T06:56:30;19.43;;;11.60;;
72864;SDS011;61000;48.120;11.548;2023-02-28T06:58:58;19.57;;;11.50;;
72864;SDS011;61000;48.120;11.548;2023-02-28T07:01:25;21.30;;;13.07;;
72864;SDS011;61000;48.120;11.548;2023-02-28T07:03:53;21.93;;;12.60;;
72864;SDS011;61000;48.120;11.548;2023-02-28T07:06:20;20.73;;;12.20;;
72864;SDS011;61000;48.120;11.548;2023-02-28T07:08:48;24.23;;;12.70;;
72864;SDS011;61000;48.120;11.548;2023-02-28T07:11:16;22.03;;;12.93;;
72864;SDS011;61000;48.120;11.548;2023-02-28T07:13:42;25.53;;;12.30;;
72864;SDS011;61000;48.120;11.548;2023-02-28T07:16:11;20.57;;;12.77;;
72864;SDS011;61000;48.120;11.548;2023-02-28T07:18:38;28.97;;;12.70;;
72864;SDS011;61000;48.120;11.548;2023-02-28T07:21:06;22.17;;;12.90;;
72864;SDS011;61000;48.120;11.548;2023-02-28T07:23:35;22.20;;;14.33;;
72864;SDS011;61000;48.120;11.548;2023-02-28T07:26:03;22.27;;;13.53;;
72864;SDS011;61000;48.120;11.548;2023-02-28T07:28:30;22.70;;;13.27;;
72864;SDS011;61000;48.120;11.548;2023-02-28T07:31:02;21.83;;;13.23;;
72864;SDS011;61000;48.120;11.548;2023-02-28T07:33:31;23.13;;;13.53;;
72864;SDS011;61000;48.120;11.548;2023-02-28T07:36:02;20.53;;;12.27;;
72864;SDS011;61000;48.120;11.548;2023-02-28T07:38:30;24.80;;;14.40;;
72864;SDS011;61000;48.120;11.548;2023-02-28T07:40:59;22.20;;;13.30;;
72864;SDS011;61000;48.120;11.548;2023-02-28T07:43:29;22.60;;;13.70;;
72864;SDS011;61000;48.120;11.548;2023-02-28T07:46:00;24.80;;;13.27;;
72864;SDS011;61000;48.120;11.548;2023-02-28T07:48:28;23.90;;;13.47;;
72864;SDS011;61000;48.120;11.548;2023-02-28T07:50:56;23.77;;;14.37;;
72864;SDS011;61000;48.120;11.548;2023-02-28T07:53:23;26.73;;;14.60;;
72864;SDS011;61000;48.120;11.548;2023-02-28T07:55:50;21.33;;;12.77;;
72864;SDS011;61000;48.120;11.548;2023-02-28T07:58:18;28.67;;;14.33;;
72864;SDS011;61000;48.120;11.548;2023-02-28T08:00:45;19.83;;;12.27;;
72864;SDS011;61000;48.120;11.548;2023-02-28T08:03:12;27.63;;;13.47;;
72864;SDS011;61000;48.120;11.548;2023-02-28T08:05:39;22.90;;;13.70;;
72864;SDS011;61000;48.120;11.548;2023-02-28T08:08:08;26.90;;;13.73;;
72864;SDS011;61000;48.120;11.548;2023-02-28T08:10:34;26.57;;;14.60;;
72864;SDS011;61000;48.120;11.548;2023-02-28T08:13:02;24.20;;;13.60;;
72864;SDS011;61000;48.120;11.548;2023-02-28T08:15:29;20.80;;;13.00;;
72864;SDS011;61000;48.120;11.548;2023-02-28T08:17:56;21.63;;;13.73;;
72864;SDS011;61000;48.120;11.548;2023-02-28T08:20:23;21.77;;;12.70;;
72864;SDS011;61000;48.120;11.548;2023-02-28T08:22:50;23.42;;;12.63;;
72864;SDS011;61000;48.120;11.548;2023-02-28T08:25:18;21.83;;;13.63;;
72864;SDS011;61000;48.120;11.548;2023-02-28T08:27:46;30.27;;;14.73;;
72864;SDS011;61000;48.120;11.548;2023-02-28T08:30:13;25.50;;;13.73;;
72864;SDS011;61000;48.120;11.548;2023-02-28T08:32:41;25.97;;;13.57;;
72864;SDS011;61000;48.120;11.548;2023-02-28T08:35:08;22.02;;;14.05;;
72864;SDS011;61000;48.120;11.548;2023-02-28T08:37:35;22.77;;;14.33;;
72864;SDS011;61000;48.120;11.548;2023-02-28T08:40:02;23.53;;;14.17;;
72864;SDS011;61000;48.120;11.548;2023-02-28T08:42:31;23.58;;;13.68;;
72864;SDS011;61000;48.120;11.548;2023-02-28T08:44:58;28.25;;;14.98;;
72864;SDS011;61000;48.120;11.548;2023-02-28T08:47:25;24.90;;;14.38;;
72864;SDS011;61000;48.120;11.548;2023-02-28T08:49:52;21.33;;;13.70;;
72864;SDS011;61000;48.120;11.548;2023-02-28T08:52:19;24.50;;;13.82;;
72864;SDS011;61000;48.120;11.548;2023-02-28T08:54:48;21.10;;;14.20;;
72864;SDS011;61000;48.120;11.548;2023-02-28T08:57:15;23.70;;;13.25;;
72864;SDS011;61000;48.120;11.548;2023-02-28T08:59:43;24.70;;;13.73;;
72864;SDS011;61000;48.120;11.548;2023-02-28T09:02:12;21.55;;;13.32;;
72864;SDS011;61000;48.120;11.548;2023-02-28T09:04:39;23.55;;;13.80;;
72864;SDS011;61000;48.120;11.548;2023-02-28T09:07:06;26.03;;;15.00;;
72864;SDS011;61000;48.120;11.548;2023-02-28T09:09:33;27.45;;;14.57;;
72864;SDS011;61000;48.120;11.548;2023-02-28T09:12:00;23.67;;;14.07;;
72864;SDS011;61000;48.120;11.548;2023-02-28T09:14:27;20.33;;;13.25;;
72864;SDS011;61000;48.120;11.548;2023-02-28T09:16:55;23.83;;;14.45;;
72864;SDS011;61000;48.120;11.548;2023-02-28T09:19:22;25.17;;;15.52;;
72864;SDS011;61000;48.120;11.548;2023-02-28T09:21:49;19.95;;;11.80;;
72864;SDS011;61000;48.120;11.548;2023-02-28T09:24:17;21.45;;;13.50;;
72864;SDS011;61000;48.120;11.548;2023-02-28T09:26:45;21.65;;;13.55;;
72864;SDS011;61000;48.120;11.548;2023-02-28T09:29:12;25.77;;;14.15;;
72864;SDS011;61000;48.120;11.548;2023-02-28T09:31:39;21.00;;;13.50;;
72864;SDS011;61000;48.120;11.548;2023-02-28T09:34:07;21.52;;;13.88;;
72864;SDS011;61000;48.120;11.548;2023-02-28T09:36:34;22.75;;;14.27;;
72864;SDS011;61000;48.120;11.548;2023-02-28T09:39:03;26.85;;;15.57;;
72864;SDS011;61000;48.120;11.548;2023-02-28T09:41:31;25.33;;;14.88;;
72864;SDS011;61000;48.120;11.548;2023-02-28T09:44:05;17.95;;;12.35;;
72864;SDS011;61000;48.120;11.548;2023-02-28T09:46:40;21.02;;;13.75;;
72864;SDS011;61000;48.120;11.548;2023-02-28T09:49:12;22.05;;;14.68;;
72864;SDS011;61000;48.120;11.548;2023-02-28T09:51:45;21.70;;;13.52;;
72864;SDS011;61000;48.120;11.548;2023-02-28T09:54:17;25.40;;;14.75;;
72864;SDS011;61000;48.120;11.548;2023-02-28T09:56:48;24.70;;;14.35;;
72864;SDS011;61000;48.120;11.548;2023-02-28T09:59:36;23.13;;;13.65;;
72864;SDS011;61000;48.120;11.548;2023-02-28T10:02:21;21.63;;;14.25;;
72864;SDS011;61000;48.120;11.548;2023-02-28T10:05:09;20.25;;;13.70;;
72864;SDS011;61000;48.120;11.548;2023-02-28T10:07:49;20.45;;;14.45;;
72864;SDS011;61000;48.120;11.548;2023-02-28T10:10:27;24.88;;;14.32;;
72864;SDS011;61000;48.120;11.548;2023-02-28T10:12:58;21.05;;;13.88;;
72864;SDS011;61000;48.120;11.548;2023-02-28T10:15:29;24.85;;;13.23;;
72864;SDS011;61000;48.120;11.548;2023-02-28T10:17:58;22.08;;;14.43;;
72864;SDS011;61000;48.120;11.548;2023-02-28T10:20:30;20.95;;;13.18;;
72864;SDS011;61000;48.120;11.548;2023-02-28T10:23:02;23.85;;;14.57;;
72864;SDS011;61000;48.120;11.548;2023-02-28T10:25:36;19.73;;;13.13;;
72864;SDS011;61000;48.120;11.548;2023-02-28T10:28:10;20.33;;;14.07;;
72864;SDS011;61000;48.120;11.548;2023-02-28T10:30:39;22.90;;;14.80;;
72864;SDS011;61000;48.120;11.548;2023-02-28T10:33:11;23.73;;;14.55;;
72864;SDS011;61000;48.120;11.548;2023-02-28T10:35:46;21.53;;;13.60;;
72864;SDS011;61000;48.120;11.548;2023-02-28T10:38:15;27.13;;;14.60;;
72864;SDS011;61000;48.120;11.548;2023-02-28T10:40:43;21.30;;;13.88;;
72864;SDS011;61000;48.120;11.548;2023-02-28T10:43:21;26.92;;;13.40;;
72864;SDS011;61000;48.120;11.548;2023-02-28T10:45:53;22.30;;;14.55;;
72864;SDS011;61000;48.120;11.548;2023-02-28T10:48:35;23.40;;;14.23;;
72864;SDS011;61000;48.120;11.548;2023-02-28T10:51:05;20.30;;;13.77;;
72864;SDS011;61000;48.120;11.548;2023-02-28T10:53:35;31.05;;;14.48;;
72864;SDS011;61000;48.120;11.548;2023-02-28T10:56:09;24.48;;;14.15;;
72864;SDS011;61000;48.120;11.548;2023-02-28T10:58:46;22.42;;;13.18;;
72864;SDS011;61000;48.120;11.548;2023-02-28T11:01:16;24.33;;;14.00;;
72864;SDS011;61000;48.120;11.548;2023-02-28T11:03:45;21.60;;;13.93;;
72864;SDS011;61000;48.120;11.548;2023-02-28T11:06:15;22.70;;;13.73;;
72864;SDS011;61000;48.120;11.548;2023-02-28T11:08:44;22.67;;;12.63;;
72864;SDS011;61000;48.120;11.548;2023-02-28T11:11:13;22.48;;;12.98;;
72864;SDS011;61000;48.120;11.548;2023-02-28T11:13:42;22.80;;;12.80;;
72864;SDS011;61000;48.120;11.548;2023-02-28T11:16:12;20.08;;;14.20;;
72864;SDS011;61000;48.120;11.548;2023-02-28T11:18:41;23.63;;;13.65;;
72864;SDS011;61000;48.120;11.548;2023-02-28T11:21:15;27.88;;;14.75;;
72864;SDS011;61000;48.120;11.548;2023-02-28T11:23:47;19.85;;;13.88;;
72864;SDS011;61000;48.120;11.548;2023-02-28T11:29:08;25.65;;;14.15;;
72864;SDS011;61000;48.120;11.548;2023-02-28T11:31:37;29.98;;;15.38;;
72864;SDS011;61000;48.120;11.548;2023-02-28T11:34:20;25.77;;;15.55;;
72864;SDS011;61000;48.120;11.548;2023-02-28T11:36:52;20.27;;;13.73;;
72864;SDS011;61000;48.120;11.548;2023-02-28T11:39:21;19.13;;;13.45;;
72864;SDS011;61000;48.120;11.548;2023-02-28T11:41:53;21.90;;;13.57;;
72864;SDS011;61000;48.120;11.548;2023-02-28T11:44:31;24.75;;;14.02;;
72864;SDS011;61000;48.120;11.548;2023-02-28T11:47:07;19.00;;;13.00;;
72864;SDS011;61000;48.120;11.548;2023-02-28T11:49:41;19.17;;;14.57;;
72864;SDS011;61000;48.120;11.548;2023-02-28T11:52:21;18.85;;;13.23;;
72864;SDS011;61000;48.120;11.548;2023-02-28T11:55:07;23.40;;;13.07;;
72864;SDS011;61000;48.120;11.548;2023-02-28T12:00:38;24.13;;;14.80;;
72864;SDS011;61000;48.120;11.548;2023-02-28T12:03:24;19.35;;;13.00;;
72864;SDS011;61000;48.120;11.548;2023-02-28T12:05:58;18.08;;;12.90;;
72864;SDS011;61000;48.120;11.548;2023-02-28T12:08:40;21.52;;;13.75;;
72864;SDS011;61000;48.120;11.548;2023-02-28T12:11:19;21.63;;;13.27;;
72864;SDS011;61000;48.120;11.548;2023-02-28T12:13:57;24.65;;;13.57;;
72864;SDS011;61000;48.120;11.548;2023-02-28T12:16:38;19.17;;;12.75;;
72864;SDS011;61000;48.120;11.548;2023-02-28T12:19:19;23.73;;;13.60;;
72864;SDS011;61000;48.120;11.548;2023-02-28T12:24:50;19.80;;;12.77;;
72864;SDS011;61000;48.120;11.548;2023-02-28T12:27:38;20.02;;;13.38;;
72864;SDS011;61000;48.120;11.548;2023-02-28T12:30:13;20.02;;;13.07;;
72864;SDS011;61000;48.120;11.548;2023-02-28T12:32:45;22.58;;;13.32;;
72864;SDS011;61000;48.120;11.548;2023-02-28T12:35:16;20.33;;;13.48;;
72864;SDS011;61000;48.120;11.548;2023-02-28T12:37:49;22.13;;;13.43;;
72864;SDS011;61000;48.120;11.548;2023-02-28T12:40:23;18.23;;;12.63;;
72864;SDS011;61000;48.120;11.548;2023-02-28T12:42:54;20.05;;;12.20;;
72864;SDS011;61000;48.120;11.548;2023-02-28T12:45:24;20.60;;;12.98;;
72864;SDS011;61000;48.120;11.548;2023-02-28T12:47:59;16.23;;;12.40;;
72864;SDS011;61000;48.120;11.548;2023-02-28T12:50:30;20.17;;;12.40;;
72864;SDS011;61000;48.120;11.548;2023-02-28T12:53:00;17.90;;;12.50;;
72864;SDS011;61000;48.120;11.548;2023-02-28T12:55:33;20.60;;;13.10;;
72864;SDS011;61000;48.120;11.548;2023-02-28T12:58:08;18.60;;;12.55;;
72864;SDS011;61000;48.120;11.548;2023-02-28T13:00:44;15.98;;;11.23;;
72864;SDS011;61000;48.120;11.548;2023-02-28T13:03:32;15.48;;;11.63;;
72864;SDS011;61000;48.120;11.548;2023-02-28T13:06:19;18.23;;;11.98;;
72864;SDS011;61000;48.120;11.548;2023-02-28T13:08:59;17.42;;;11.88;;
72864;SDS011;61000;48.120;11.548;2023-02-28T13:11:31;20.25;;;12.75;;
72864;SDS011;61000;48.120;11.548;2023-02-28T13:14:00;14.45;;;11.27;;
72864;SDS011;61000;48.120;11.548;2023-02-28T13:16:31;16.67;;;11.90;;
72864;SDS011;61000;48.120;11.548;2023-02-28T13:19:20;18.88;;;12.05;;
72864;SDS011;61000;48.120;11.548;2023-02-28T13:21:49;17.95;;;11.68;;
72864;SDS011;61000;48.120;11.548;2023-02-28T13:30:00;19.50;;;11.80;;
72864;SDS011;61000;48.120;11.548;2023-02-28T13:32:32;21.55;;;11.95;;
72864;SDS011;61000;48.120;11.548;2023-02-28T13:38:15;16.88;;;11.93;;
72864;SDS011;61000;48.120;11.548;2023-02-28T13:40:50;16.75;;;11.77;;
72864;SDS011;61000;48.120;11.548;2023-02-28T13:43:18;16.95;;;11.90;;
72864;SDS011;61000;48.120;11.548;2023-02-28T13:46:04;18.02;;;11.82;;
72864;SDS011;61000;48.120;11.548;2023-02-28T13:48:34;18.27;;;11.75;;
72864;SDS011;61000;48.120;11.548;2023-02-28T13:54:07;16.45;;;11.75;;
72864;SDS011;61000;48.120;11.548;2023-02-28T13:57:10;16.52;;;11.15;;
72864;SDS011;61000;48.120;11.548;2023-02-28T13:59:48;16.50;;;11.32;;
72864;SDS011;61000;48.120;11.548;2023-02-28T14:02:35;15.40;;;10.90;;
72864;SDS011;61000;48.120;11.548;2023-02-28T14:05:13;20.40;;;12.10;;
72864;SDS011;61000;48.120;11.548;2023-02-28T14:07:43;16.27;;;11.27;;
72864;SDS011;61000;48.120;11.548;2023-02-28T14:10:20;18.48;;;12.07;;
72864;SDS011;61000;48.120;11.548;2023-02-28T14:12:55;17.10;;;11.20;;
72864;SDS011;61000;48.120;11.548;2023-02-28T14:18:17;18.90;;;11.68;;
72864;SDS011;61000;48.120;11.548;2023-02-28T14:20:54;19.05;;;11.85;;
72864;SDS011;61000;48.120;11.548;2023-02-28T14:23:30;21.85;;;13.50;;
72864;SDS011;61000;48.120;11.548;2023-02-28T14:26:19;21.95;;;13.32;;
72864;SDS011;61000;48.120;11.548;2023-02-28T14:29:02;16.25;;;11.70;;
72864;SDS011;61000;48.120;11.548;2023-02-28T14:31:45;16.52;;;11.68;;
72864;SDS011;61000;48.120;11.548;2023-02-28T14:34:21;21.27;;;11.70;;
72864;SDS011;61000;48.120;11.548;2023-02-28T14:37:01;17.40;;;12.38;;
72864;SDS011;61000;48.120;11.548;2023-02-28T14:39:29;17.42;;;11.90;;
72864;SDS011;61000;48.120;11.548;2023-02-28T14:41:57;15.88;;;11.00;;
72864;SDS011;61000;48.120;11.548;2023-02-28T14:44:28;17.85;;;11.23;;
72864;SDS011;61000;48.120;11.548;2023-02-28T14:46:57;19.85;;;11.43;;
72864;SDS011;61000;48.120;11.548;2023-02-28T14:49:29;17.45;;;11.23;;
72864;SDS011;61000;48.120;11.548;2023-02-28T14:52:02;15.77;;;11.00;;
72864;SDS011;61000;48.120;11.548;2023-02-28T14:54:34;18.10;;;11.40;;
72864;SDS011;61000;48.120;11.548;2023-02-28T14:57:01;16.58;;;10.57;;
72864;SDS011;61000;48.120;11.548;2023-02-28T14:59:30;18.02;;;10.98;;
72864;SDS011;61000;48.120;11.548;2023-02-28T15:02:15;20.15;;;12.75;;
72864;SDS011;61000;48.120;11.548;2023-02-28T15:04:43;17.40;;;11.05;;